Time;durP1;ratioP1;P1;durP2;ratioP2;P2;SDS_P1;SDS_P2;PMS_P1;PMS_P2;Temp;Humidity;BMP_temperature;BMP_pressure;BME280_temperature;BME280_humidity;BME280_pressure;Samples;Min_cycle;Max_cycle;Signal;HPM_P1;HPM_P2
2023/10/22 00:02:00;;;;;;;;;;;10.60;84.80;;;;;;5095865;28;19938;-70
2023/10/22 00:04:33;;;;;;;;;;;10.50;84.90;;;;;;5097453;28;20034;-69
2023/10/22 00:07:06;;;;;;;;;;;10.50;84.90;;;;;;5095346;28;19927;-70
2023/10/22 00:09:40;;;;;;;;;;;10.50;84.80;;;;;;5092821;28;19939;-69
2023/10/22 00:12:14;;;;;;;;;;;10.40;84.90;;;;;;5088522;28;19974;-70
2023/10/22 00:14:47;;;;;;;;;;;10.40;84.80;;;;;;5110913;27;19924;-69
2023/10/22 00:17:20;;;;;;;;;;;10.40;84.90;;;;;;5077998;28;19932;-70
2023/10/22 00:19:53;;;;;;;;;;;10.40;84.70;;;;;;5099787;28;20356;-70
2023/10/22 00:22:26;;;;;;;;;;;10.30;84.60;;;;;;5112149;27;20001;-70
2023/10/22 00:25:00;;;;;;;;;;;10.40;84.70;;;;;;5096663;27;19973;-71
2023/10/22 00:27:34;;;;;;;;;;;10.30;84.90;;;;;;5097221;28;20362;-73
2023/10/22 00:30:08;;;;;;;;;;;10.20;85.00;;;;;;5111105;27;19924;-71
2023/10/22 00:32:42;;;;;;;;;;;10.20;84.80;;;;;;5099141;28;19993;-71
2023/10/22 00:35:15;;;;;;;;;;;10.10;84.90;;;;;;5114744;27;19932;-65
2023/10/22 00:37:48;;;;;;;;;;;10.10;84.80;;;;;;5100194;28;19971;-66
2023/10/22 00:40:23;;;;;;;;;;;10.10;84.80;;;;;;5097160;28;19935;-67
2023/10/22 00:42:57;;;;;;;;;;;10.20;84.50;;;;;;5099134;28;20591;-67
2023/10/22 00:45:31;;;;;;;;;;;10.20;84.50;;;;;;5094739;28;20378;-66
2023/10/22 00:48:04;;;;;;;;;;;10.10;84.60;;;;;;5083012;28;19924;-66
2023/10/22 00:50:39;;;;;;;;;;;10.10;84.40;;;;;;5115069;27;20229;-66
2023/10/22 00:53:13;;;;;;;;;;;10.00;84.60;;;;;;5099714;28;19928;-67
2023/10/22 00:55:48;;;;;;;;;;;10.00;84.70;;;;;;5093353;28;19933;-65
2023/10/22 00:58:22;;;;;;;;;;;10.00;84.70;;;;;;5096675;28;20390;-65
2023/10/22 01:00:55;;;;;;;;;;;9.90;84.60;;;;;;5093792;28;19932;-65
2023/10/22 01:03:28;;;;;;;;;;;9.80;84.70;;;;;;5085576;28;19924;-64
2023/10/22 01:06:02;;;;;;;;;;;9.90;84.60;;;;;;5110641;27;20287;-67
2023/10/22 01:08:37;;;;;;;;;;;9.80;84.60;;;;;;5096773;28;19964;-66
2023/10/22 01:11:11;;;;;;;;;;;9.90;84.50;;;;;;5097228;28;20649;-67
2023/10/22 01:13:45;;;;;;;;;;;9.90;84.50;;;;;;5089989;28;19932;-64
2023/10/22 01:16:18;;;;;;;;;;;9.80;84.40;;;;;;5098935;28;19964;-65
2023/10/22 01:18:52;;;;;;;;;;;9.80;84.50;;;;;;5099094;28;19977;-66
2023/10/22 01:21:25;;;;;;;;;;;9.70;84.50;;;;;;5096498;28;19928;-67
2023/10/22 01:23:59;;;;;;;;;;;9.70;84.50;;;;;;5098746;28;20346;-68
2023/10/22 01:26:26;;;;;;;;;;;9.80;84.40;;;;;;5096796;28;19928;-66
2023/10/22 01:28:59;;;;;;;;;;;9.70;84.30;;;;;;5099401;28;19928;-65
2023/10/22 01:31:32;;;;;;;;;;;9.70;84.40;;;;;;5097739;28;19932;-65
2023/10/22 01:34:06;;;;;;;;;;;9.70;84.40;;;;;;5096799;28;19978;-66
2023/10/22 01:36:39;;;;;;;;;;;9.70;84.30;;;;;;5100923;28;19935;-65
2023/10/22 01:39:14;;;;;;;;;;;9.70;84.40;;;;;;5100934;28;19924;-65
2023/10/22 01:41:48;;;;;;;;;;;9.70;84.30;;;;;;5093789;28;20424;-66
2023/10/22 01:44:21;;;;;;;;;;;9.70;84.30;;;;;;5088064;28;19977;-66
2023/10/22 01:46:54;;;;;;;;;;;9.70;84.40;;;;;;5099887;28;19924;-68
2023/10/22 01:49:27;;;;;;;;;;;9.70;84.30;;;;;;5101458;28;19931;-69
2023/10/22 01:52:00;;;;;;;;;;;9.70;84.30;;;;;;5097879;27;19925;-70
2023/10/22 01:54:34;;;;;;;;;;;9.60;84.40;;;;;;5100541;28;20027;-69
2023/10/22 01:57:08;;;;;;;;;;;9.60;84.60;;;;;;5095355;28;20023;-68
2023/10/22 01:59:41;;;;;;;;;;;9.60;84.30;;;;;;5102277;28;19928;-69
2023/10/22 02:02:15;;;;;;;;;;;9.60;84.20;;;;;;5095781;27;19952;-69
2023/10/22 02:04:49;;;;;;;;;;;9.60;84.40;;;;;;5105504;27;19932;-69
2023/10/22 02:07:22;;;;;;;;;;;9.50;84.50;;;;;;5099514;28;20018;-68
2023/10/22 02:09:56;;;;;;;;;;;9.50;84.60;;;;;;5090912;27;19932;-69
2023/10/22 02:12:30;;;;;;;;;;;9.50;84.60;;;;;;5097743;28;19955;-69
2023/10/22 02:15:03;;;;;;;;;;;9.50;84.40;;;;;;5094255;28;19934;-69
2023/10/22 02:17:39;;;;;;;;;;;9.40;84.50;;;;;;5100888;28;19930;-68
2023/10/22 02:20:13;;;;;;;;;;;9.40;84.60;;;;;;5098149;28;19928;-69
2023/10/22 02:22:46;;;;;;;;;;;9.30;84.70;;;;;;5105758;27;20317;-68
2023/10/22 02:25:20;;;;;;;;;;;9.30;84.70;;;;;;5094708;28;21842;-69
2023/10/22 02:27:54;;;;;;;;;;;9.30;84.70;;;;;;5095204;28;19932;-68
2023/10/22 02:30:28;;;;;;;;;;;9.30;84.60;;;;;;5092297;28;19932;-68
2023/10/22 02:33:01;;;;;;;;;;;9.20;84.80;;;;;;5089893;28;19924;-68
2023/10/22 02:35:39;;;;;;;;;;;9.30;84.80;;;;;;5091398;28;20367;-69
2023/10/22 02:38:12;;;;;;;;;;;9.20;84.90;;;;;;5091050;28;20436;-68
2023/10/22 02:40:49;;;;;;;;;;;9.30;84.60;;;;;;5077218;28;19993;-68
2023/10/22 02:43:22;;;;;;;;;;;9.30;84.90;;;;;;5098772;27;19936;-70
2023/10/22 02:45:56;;;;;;;;;;;9.30;84.70;;;;;;5104277;27;19932;-68
2023/10/22 02:48:29;;;;;;;;;;;9.30;84.50;;;;;;5100778;27;19930;-68
2023/10/22 02:51:03;;;;;;;;;;;9.30;84.50;;;;;;5078659;28;19928;-68
2023/10/22 02:53:36;;;;;;;;;;;9.30;84.60;;;;;;5095540;28;19928;-68
2023/10/22 02:56:11;;;;;;;;;;;9.20;84.80;;;;;;5098384;28;19924;-71
2023/10/22 02:58:45;;;;;;;;;;;9.30;84.90;;;;;;5093641;28;19924;-71
2023/10/22 03:01:18;;;;;;;;;;;9.30;84.80;;;;;;5094487;28;20303;-71
2023/10/22 03:03:45;;;;;;;;;;;9.40;84.90;;;;;;5083855;28;20049;-71
2023/10/22 03:06:18;;;;;;;;;;;9.30;84.90;;;;;;5094971;28;19927;-69
2023/10/22 03:08:51;;;;;;;;;;;9.30;85.10;;;;;;5076103;28;19932;-70
2023/10/22 03:11:25;;;;;;;;;;;9.40;85.00;;;;;;5086330;28;20382;-70
2023/10/22 03:13:59;;;;;;;;;;;9.40;84.80;;;;;;5094708;28;19969;-70
2023/10/22 03:16:32;;;;;;;;;;;9.30;85.20;;;;;;5094886;28;19931;-70
2023/10/22 03:18:59;;;;;;;;;;;9.40;84.80;;;;;;5104950;27;19924;-71
2023/10/22 03:21:35;;;;;;;;;;;9.30;84.80;;;;;;5103461;27;20397;-70
2023/10/22 03:24:11;;;;;;;;;;;9.20;84.90;;;;;;5109330;27;19928;-71
2023/10/22 03:26:46;;;;;;;;;;;9.20;85.00;;;;;;5098062;28;19934;-72
2023/10/22 03:29:20;;;;;;;;;;;9.20;84.90;;;;;;5092411;28;19938;-70
2023/10/22 03:31:53;;;;;;;;;;;9.10;85.00;;;;;;5091297;28;19923;-70
2023/10/22 03:34:27;;;;;;;;;;;9.10;85.10;;;;;;5098295;28;19936;-70
2023/10/22 03:37:04;;;;;;;;;;;9.10;85.00;;;;;;5110256;27;19932;-70
2023/10/22 03:39:37;;;;;;;;;;;9.00;84.90;;;;;;5097514;28;19927;-71
2023/10/22 03:42:11;;;;;;;;;;;9.00;85.00;;;;;;5094557;28;19959;-72
2023/10/22 03:44:45;;;;;;;;;;;9.00;85.10;;;;;;5093364;28;19963;-70
2023/10/22 03:47:18;;;;;;;;;;;9.10;85.10;;;;;;5094571;28;20026;-69
2023/10/22 03:49:52;;;;;;;;;;;9.10;85.10;;;;;;5096645;28;19924;-69
2023/10/22 03:52:25;;;;;;;;;;;9.20;85.00;;;;;;5096030;28;19928;-70
2023/10/22 03:54:58;;;;;;;;;;;9.10;85.20;;;;;;5085008;28;19930;-70
2023/10/22 03:57:32;;;;;;;;;;;9.10;85.40;;;;;;5097409;28;19932;-70
2023/10/22 04:00:07;;;;;;;;;;;9.00;85.80;;;;;;5098845;28;20422;-69
2023/10/22 04:02:38;;;;;;;;;;;9.10;86.10;;;;;;5096618;28;19955;-70
2023/10/22 04:05:11;;;;;;;;;;;9.20;86.10;;;;;;5091616;28;20019;-70
2023/10/22 04:07:44;;;;;;;;;;;9.20;86.20;;;;;;5097022;27;19932;-70
2023/10/22 04:10:17;;;;;;;;;;;9.20;86.40;;;;;;5097645;28;19971;-70
2023/10/22 04:12:51;;;;;;;;;;;9.20;86.50;;;;;;5093807;28;20286;-68
2023/10/22 04:15:18;;;;;;;;;;;9.20;86.50;;;;;;5089596;28;19924;-70
2023/10/22 04:17:52;;;;;;;;;;;9.20;86.60;;;;;;5095742;27;20023;-70
2023/10/22 04:20:26;;;;;;;;;;;9.30;86.70;;;;;;5092825;28;20290;-70
2023/10/22 04:22:59;;;;;;;;;;;9.40;86.60;;;;;;5092935;27;19924;-70
2023/10/22 04:25:36;;;;;;;;;;;9.30;86.60;;;;;;5093144;28;19935;-70
2023/10/22 04:28:11;;;;;;;;;;;9.30;86.60;;;;;;5096982;28;19928;-70
2023/10/22 04:30:45;;;;;;;;;;;9.30;86.80;;;;;;5095139;28;19932;-71
2023/10/22 04:33:19;;;;;;;;;;;9.20;86.50;;;;;;5093551;28;19935;-71
2023/10/22 04:35:52;;;;;;;;;;;9.20;86.50;;;;;;5095747;28;20023;-71
2023/10/22 04:38:25;;;;;;;;;;;9.20;86.40;;;;;;5098576;28;20349;-70
2023/10/22 04:40:57;;;;;;;;;;;9.20;86.30;;;;;;5097307;27;19932;-69
2023/10/22 04:43:31;;;;;;;;;;;9.20;86.10;;;;;;5088287;28;19928;-70
2023/10/22 04:46:05;;;;;;;;;;;9.20;86.10;;;;;;5095162;28;19963;-70
2023/10/22 04:48:38;;;;;;;;;;;9.20;85.90;;;;;;5095083;28;19931;-71
2023/10/22 04:51:11;;;;;;;;;;;9.10;86.00;;;;;;5094185;28;20011;-69
2023/10/22 04:53:44;;;;;;;;;;;9.10;85.90;;;;;;5095549;27;19924;-69
2023/10/22 04:56:17;;;;;;;;;;;9.10;85.90;;;;;;5096015;28;19932;-71
2023/10/22 04:58:57;;;;;;;;;;;9.00;86.00;;;;;;5094484;28;19932;-69
2023/10/22 05:01:31;;;;;;;;;;;9.00;85.90;;;;;;5090980;28;20764;-70
2023/10/22 05:04:04;;;;;;;;;;;9.00;85.90;;;;;;5090889;27;19938;-70
2023/10/22 05:06:38;;;;;;;;;;;8.90;86.00;;;;;;5092232;28;20570;-71
2023/10/22 05:09:11;;;;;;;;;;;9.00;85.90;;;;;;5094087;28;19932;-70
2023/10/22 05:11:44;;;;;;;;;;;9.00;85.80;;;;;;5096475;28;19934;-70
2023/10/22 05:14:18;;;;;;;;;;;8.90;85.90;;;;;;5096064;28;19935;-69
2023/10/22 05:16:52;;;;;;;;;;;8.90;86.00;;;;;;5094846;28;19928;-71
2023/10/22 05:19:19;;;;;;;;;;;8.90;86.20;;;;;;5097792;28;20371;-72
2023/10/22 05:21:53;;;;;;;;;;;8.90;86.30;;;;;;5095813;28;19939;-71
2023/10/22 05:24:26;;;;;;;;;;;8.90;86.50;;;;;;5096587;28;19950;-70
2023/10/22 05:27:00;;;;;;;;;;;9.00;86.60;;;;;;5099155;28;20023;-71
2023/10/22 05:29:37;;;;;;;;;;;9.00;86.70;;;;;;5108658;27;20333;-72
2023/10/22 05:32:10;;;;;;;;;;;9.10;86.90;;;;;;5092908;28;20553;-72
2023/10/22 05:34:43;;;;;;;;;;;9.10;86.90;;;;;;5105656;28;19947;-70
2023/10/22 05:37:17;;;;;;;;;;;9.10;87.00;;;;;;5090314;28;19932;-72
2023/10/22 05:39:44;;;;;;;;;;;9.20;87.20;;;;;;5094323;28;20271;-72
2023/10/22 05:42:17;;;;;;;;;;;9.10;87.20;;;;;;5094778;28;20035;-72
2023/10/22 05:44:46;;;;;;;;;;;9.20;87.30;;;;;;5098566;28;19924;-71
2023/10/22 05:47:19;;;;;;;;;;;9.20;87.50;;;;;;5098454;28;20409;-72
2023/10/22 05:49:52;;;;;;;;;;;9.30;87.50;;;;;;5099231;28;20014;-72
2023/10/22 05:52:28;;;;;;;;;;;9.30;87.70;;;;;;5094345;28;19924;-71
2023/10/22 05:55:03;;;;;;;;;;;9.30;87.70;;;;;;5096399;28;20020;-71
2023/10/22 05:57:47;;;;;;;;;;;9.30;87.60;;;;;;5096760;28;19924;-72
2023/10/22 06:00:31;;;;;;;;;;;9.30;87.60;;;;;;5094286;28;19928;-73
2023/10/22 06:03:04;;;;;;;;;;;9.40;87.80;;;;;;5095647;28;19959;-70
2023/10/22 06:05:39;;;;;;;;;;;9.30;87.80;;;;;;5097559;28;19935;-72
2023/10/22 06:11:35;;;;;;;;;;;9.40;87.90;;;;;;5091729;28;19939;-72
2023/10/22 06:14:09;;;;;;;;;;;9.40;88.10;;;;;;5096009;28;19924;-72
2023/10/22 06:16:39;;;;;;;;;;;9.50;88.10;;;;;;5094028;28;19924;-72
2023/10/22 06:19:14;;;;;;;;;;;9.50;88.20;;;;;;5095209;28;19924;-73
2023/10/22 06:21:47;;;;;;;;;;;9.60;88.10;;;;;;5096372;28;19981;-72
2023/10/22 06:24:21;;;;;;;;;;;9.60;88.30;;;;;;5096063;28;19939;-73
2023/10/22 06:26:48;;;;;;;;;;;9.60;88.30;;;;;;5102937;28;20370;-71
2023/10/22 06:29:21;;;;;;;;;;;9.60;88.30;;;;;;5094637;28;20338;-71
2023/10/22 06:31:55;;;;;;;;;;;9.70;88.30;;;;;;5099710;28;20409;-70
2023/10/22 06:34:29;;;;;;;;;;;9.70;88.20;;;;;;5100111;28;20443;-70
2023/10/22 06:37:02;;;;;;;;;;;9.70;88.30;;;;;;5101750;28;19932;-71
2023/10/22 06:39:35;;;;;;;;;;;9.70;88.40;;;;;;5097059;28;19928;-70
2023/10/22 06:42:08;;;;;;;;;;;9.80;88.30;;;;;;5094963;28;19928;-70
2023/10/22 06:44:43;;;;;;;;;;;9.70;88.40;;;;;;5100139;28;19928;-70
2023/10/22 06:47:18;;;;;;;;;;;9.80;88.20;;;;;;5099317;28;19927;-70
2023/10/22 06:49:52;;;;;;;;;;;9.80;88.30;;;;;;5096735;27;19974;-70
2023/10/22 06:52:20;;;;;;;;;;;9.80;88.50;;;;;;5098021;28;19951;-71
2023/10/22 06:54:54;;;;;;;;;;;9.90;88.20;;;;;;5100967;28;19931;-70
2023/10/22 06:57:27;;;;;;;;;;;9.90;88.30;;;;;;5097798;28;19935;-70
2023/10/22 07:00:00;;;;;;;;;;;9.90;88.40;;;;;;5092325;28;20027;-70
2023/10/22 07:02:34;;;;;;;;;;;9.90;88.30;;;;;;5096450;28;20348;-72
2023/10/22 07:05:10;;;;;;;;;;;9.90;88.50;;;;;;5101299;28;19928;-70
2023/10/22 07:07:43;;;;;;;;;;;9.90;88.60;;;;;;5098647;28;20019;-70
2023/10/22 07:10:16;;;;;;;;;;;10.00;88.70;;;;;;5100755;27;19924;-71
2023/10/22 07:12:50;;;;;;;;;;;10.10;88.60;;;;;;5098343;28;19924;-68
2023/10/22 07:15:24;;;;;;;;;;;10.10;88.60;;;;;;5097118;27;20014;-68
2023/10/22 07:17:58;;;;;;;;;;;10.10;88.50;;;;;;5097759;28;19924;-71
2023/10/22 07:20:32;;;;;;;;;;;10.20;88.50;;;;;;5097030;28;19967;-69
2023/10/22 07:23:06;;;;;;;;;;;10.20;88.60;;;;;;5098121;28;19963;-68
2023/10/22 07:25:39;;;;;;;;;;;10.20;88.60;;;;;;5100958;27;19946;-69
2023/10/22 07:28:13;;;;;;;;;;;10.30;88.60;;;;;;5095594;28;19924;-69
2023/10/22 07:30:46;;;;;;;;;;;10.40;88.60;;;;;;5100248;28;19995;-69
2023/10/22 07:33:22;;;;;;;;;;;10.40;88.40;;;;;;5095877;28;19963;-69
2023/10/22 07:35:57;;;;;;;;;;;10.50;88.40;;;;;;5098213;28;20011;-71
2023/10/22 07:38:32;;;;;;;;;;;10.50;88.30;;;;;;5097230;28;19970;-71
2023/10/22 07:41:07;;;;;;;;;;;10.50;88.30;;;;;;5100321;28;20302;-72
2023/10/22 07:43:40;;;;;;;;;;;10.60;88.20;;;;;;5095748;28;19971;-71
2023/10/22 07:46:15;;;;;;;;;;;10.60;88.20;;;;;;5099184;28;19946;-72
2023/10/22 07:48:49;;;;;;;;;;;10.70;88.30;;;;;;5098107;28;19931;-72
2023/10/22 07:51:25;;;;;;;;;;;10.70;88.30;;;;;;5095603;28;19927;-71
2023/10/22 07:53:59;;;;;;;;;;;10.80;88.20;;;;;;5098400;28;19972;-72
2023/10/22 07:56:34;;;;;;;;;;;10.80;88.50;;;;;;5096922;28;19939;-71
2023/10/22 07:59:07;;;;;;;;;;;10.90;88.60;;;;;;5098444;28;19932;-71
2023/10/22 08:01:40;;;;;;;;;;;10.90;88.40;;;;;;5096137;28;19924;-70
2023/10/22 08:04:14;;;;;;;;;;;11.00;88.40;;;;;;5096478;28;19924;-70
2023/10/22 08:06:48;;;;;;;;;;;11.10;88.70;;;;;;5099010;28;20002;-70
2023/10/22 08:09:21;;;;;;;;;;;11.10;88.80;;;;;;5099953;27;19935;-71
2023/10/22 08:11:48;;;;;;;;;;;11.10;88.80;;;;;;5089643;28;19947;-71
2023/10/22 08:14:21;;;;;;;;;;;11.20;88.80;;;;;;5095164;28;19955;-72
2023/10/22 08:16:54;;;;;;;;;;;11.20;88.90;;;;;;5099349;28;19928;-72
2023/10/22 08:19:28;;;;;;;;;;;11.20;89.00;;;;;;5097522;28;19926;-72
2023/10/22 08:22:02;;;;;;;;;;;11.20;88.80;;;;;;5094716;27;19932;-72
2023/10/22 08:24:35;;;;;;;;;;;11.30;88.90;;;;;;5096901;28;20550;-73
2023/10/22 08:27:15;;;;;;;;;;;11.40;88.60;;;;;;5098846;28;19924;-71
2023/10/22 08:30:02;;;;;;;;;;;11.50;88.70;;;;;;5094792;28;21283;-72
2023/10/22 08:32:46;;;;;;;;;;;11.70;88.70;;;;;;5094466;28;19935;-70
2023/10/22 08:35:22;;;;;;;;;;;11.70;88.30;;;;;;5093551;28;20018;-71
2023/10/22 08:37:55;;;;;;;;;;;11.80;88.40;;;;;;5098506;28;19932;-70
2023/10/22 08:40:29;;;;;;;;;;;11.90;88.10;;;;;;5094992;28;20375;-71
2023/10/22 08:43:02;;;;;;;;;;;12.00;88.10;;;;;;5094022;28;19924;-73
2023/10/22 08:45:35;;;;;;;;;;;12.10;87.80;;;;;;5094239;28;19993;-67
2023/10/22 08:48:03;;;;;;;;;;;12.20;87.70;;;;;;5094124;28;19967;-65
2023/10/22 08:50:39;;;;;;;;;;;12.20;87.50;;;;;;5095090;28;20256;-66
2023/10/22 08:53:12;;;;;;;;;;;12.30;87.00;;;;;;5101867;27;19924;-66
2023/10/22 08:55:47;;;;;;;;;;;12.20;86.80;;;;;;5093878;28;19928;-65
2023/10/22 08:58:16;;;;;;;;;;;12.40;86.50;;;;;;5093038;27;19974;-66
2023/10/22 09:00:50;;;;;;;;;;;12.60;86.40;;;;;;5095797;28;19946;-65
2023/10/22 09:03:25;;;;;;;;;;;12.60;86.00;;;;;;5096027;27;19931;-65
2023/10/22 09:06:01;;;;;;;;;;;12.70;85.70;;;;;;5087508;28;19938;-65
2023/10/22 09:08:41;;;;;;;;;;;12.90;85.10;;;;;;5095272;28;19969;-65
2023/10/22 09:11:14;;;;;;;;;;;13.20;84.60;;;;;;5098066;28;19928;-65
2023/10/22 09:13:48;;;;;;;;;;;13.30;84.00;;;;;;5089641;28;20015;-65
2023/10/22 09:16:41;;;;;;;;;;;13.50;83.70;;;;;;5094149;28;19931;-63
2023/10/22 09:19:14;;;;;;;;;;;13.50;83.30;;;;;;5105932;28;19923;-66
2023/10/22 09:21:49;;;;;;;;;;;13.70;82.60;;;;;;5090345;28;19928;-64
2023/10/22 09:24:23;;;;;;;;;;;13.80;82.10;;;;;;5092813;28;19957;-66
2023/10/22 09:27:00;;;;;;;;;;;13.90;82.00;;;;;;5081542;28;19925;-65
2023/10/22 09:29:43;;;;;;;;;;;13.80;81.80;;;;;;5095633;28;19928;-66
2023/10/22 09:32:16;;;;;;;;;;;13.80;81.70;;;;;;5088617;28;20071;-67
2023/10/22 09:34:49;;;;;;;;;;;13.80;81.60;;;;;;5105490;28;19939;-66
2023/10/22 09:37:23;;;;;;;;;;;13.90;81.60;;;;;;5092412;28;19928;-65
2023/10/22 09:39:57;;;;;;;;;;;13.90;81.30;;;;;;5093179;28;19924;-65
2023/10/22 09:42:30;;;;;;;;;;;13.90;80.90;;;;;;5092155;28;19935;-66
2023/10/22 09:45:03;;;;;;;;;;;14.00;80.80;;;;;;5090831;28;20022;-66
2023/10/22 09:47:36;;;;;;;;;;;14.10;80.80;;;;;;5091092;28;20576;-67
2023/10/22 09:50:12;;;;;;;;;;;14.00;80.90;;;;;;5087143;28;19931;-66
2023/10/22 09:52:47;;;;;;;;;;;14.10;80.90;;;;;;5096238;28;19924;-66
2023/10/22 09:55:23;;;;;;;;;;;14.10;80.60;;;;;;5086457;28;20363;-71
2023/10/22 09:57:56;;;;;;;;;;;14.30;80.40;;;;;;5094081;28;19924;-70
2023/10/22 10:00:30;;;;;;;;;;;14.40;80.10;;;;;;5093167;27;19931;-69
2023/10/22 10:03:04;;;;;;;;;;;14.50;79.40;;;;;;5099272;28;19924;-70
2023/10/22 10:05:38;;;;;;;;;;;14.40;79.40;;;;;;5098305;28;20467;-70
2023/10/22 10:08:13;;;;;;;;;;;14.50;79.40;;;;;;5096952;28;20393;-71
2023/10/22 10:10:47;;;;;;;;;;;14.50;79.30;;;;;;5100632;28;19924;-70
2023/10/22 10:13:20;;;;;;;;;;;14.60;79.10;;;;;;5102679;28;19924;-69
2023/10/22 10:15:58;;;;;;;;;;;14.60;78.90;;;;;;5093084;28;19924;-70
2023/10/22 10:18:50;;;;;;;;;;;14.60;79.00;;;;;;5093380;28;19928;-69
2023/10/22 10:21:45;;;;;;;;;;;14.60;78.80;;;;;;5096072;27;21119;-71
2023/10/22 10:24:21;;;;;;;;;;;14.70;78.60;;;;;;5098281;28;19928;-71
2023/10/22 10:27:11;;;;;;;;;;;14.60;78.40;;;;;;5081040;28;19932;-71
2023/10/22 10:30:04;;;;;;;;;;;14.60;78.60;;;;;;5096070;28;19950;-70
2023/10/22 10:32:42;;;;;;;;;;;14.60;78.30;;;;;;5102185;28;19928;-70
2023/10/22 10:35:16;;;;;;;;;;;14.70;77.90;;;;;;5088887;28;20816;-70
2023/10/22 10:38:13;;;;;;;;;;;14.70;78.10;;;;;;5096163;28;19924;-70
2023/10/22 10:40:48;;;;;;;;;;;14.70;78.10;;;;;;5098507;28;20592;-69
2023/10/22 10:43:41;;;;;;;;;;;14.70;78.10;;;;;;5093585;28;19927;-70
2023/10/22 10:46:25;;;;;;;;;;;14.60;77.90;;;;;;5091574;27;20367;-70
2023/10/22 10:48:58;;;;;;;;;;;14.60;77.60;;;;;;5095488;28;19984;-70
2023/10/22 10:51:31;;;;;;;;;;;14.60;77.30;;;;;;5097228;27;19934;-69
2023/10/22 10:54:14;;;;;;;;;;;14.60;77.30;;;;;;5081622;28;19927;-69
2023/10/22 10:56:52;;;;;;;;;;;14.70;77.20;;;;;;5087773;27;19924;-70
2023/10/22 10:59:26;;;;;;;;;;;14.80;77.10;;;;;;5093812;27;20018;-70
2023/10/22 11:02:01;;;;;;;;;;;14.90;77.10;;;;;;5092633;28;19985;-69
2023/10/22 11:04:35;;;;;;;;;;;15.00;76.60;;;;;;5092942;27;19931;-69
2023/10/22 11:07:08;;;;;;;;;;;14.90;76.60;;;;;;5112267;27;19950;-66
2023/10/22 11:09:41;;;;;;;;;;;15.00;76.60;;;;;;5094826;27;20074;-66
2023/10/22 11:12:14;;;;;;;;;;;15.10;76.70;;;;;;5091385;28;20299;-66
2023/10/22 11:14:53;;;;;;;;;;;15.10;76.50;;;;;;5089224;28;19938;-68
2023/10/22 11:17:27;;;;;;;;;;;15.10;76.50;;;;;;5095318;28;19937;-65
2023/10/22 11:20:01;;;;;;;;;;;15.20;76.40;;;;;;5100481;28;19947;-65
2023/10/22 11:22:35;;;;;;;;;;;15.20;76.10;;;;;;5097628;28;19931;-67
2023/10/22 11:25:10;;;;;;;;;;;15.20;75.90;;;;;;5098280;27;19985;-66
2023/10/22 11:27:43;;;;;;;;;;;15.20;76.00;;;;;;5097259;27;19931;-66
2023/10/22 11:30:31;;;;;;;;;;;15.20;76.00;;;;;;5095795;28;19963;-65
2023/10/22 11:33:07;;;;;;;;;;;15.20;76.10;;;;;;5090977;28;19951;-67
2023/10/22 11:35:40;;;;;;;;;;;15.30;76.10;;;;;;5094099;28;19934;-67
2023/10/22 11:38:21;;;;;;;;;;;15.30;75.90;;;;;;5092466;28;19933;-67
2023/10/22 11:40:55;;;;;;;;;;;15.40;75.70;;;;;;5092907;28;19929;-67
2023/10/22 11:43:23;;;;;;;;;;;15.50;75.50;;;;;;5090686;28;19990;-67
2023/10/22 11:45:57;;;;;;;;;;;15.50;75.30;;;;;;5094564;28;19951;-66
2023/10/22 11:48:32;;;;;;;;;;;15.50;75.20;;;;;;5098029;27;19935;-68
2023/10/22 11:51:05;;;;;;;;;;;15.60;75.00;;;;;;5086346;28;20617;-66
2023/10/22 11:53:41;;;;;;;;;;;15.70;75.20;;;;;;5093509;28;19927;-66
2023/10/22 11:56:14;;;;;;;;;;;15.70;75.10;;;;;;5086244;28;20547;-65
2023/10/22 11:58:52;;;;;;;;;;;15.60;74.90;;;;;;5106071;27;20380;-66
2023/10/22 12:01:25;;;;;;;;;;;15.60;75.00;;;;;;5088983;28;19924;-67
2023/10/22 12:04:02;;;;;;;;;;;15.60;75.00;;;;;;5094318;28;20015;-67
2023/10/22 12:06:35;;;;;;;;;;;15.60;75.00;;;;;;5087205;28;19946;-67
2023/10/22 12:09:10;;;;;;;;;;;15.60;75.10;;;;;;5088928;28;19927;-67
2023/10/22 12:11:43;;;;;;;;;;;15.60;75.30;;;;;;5099798;28;19932;-65
2023/10/22 12:14:16;;;;;;;;;;;15.60;75.00;;;;;;5096557;28;19924;-65
2023/10/22 12:16:43;;;;;;;;;;;15.60;75.30;;;;;;5099611;28;19934;-69
2023/10/22 12:19:17;;;;;;;;;;;15.70;75.30;;;;;;5097166;28;19928;-68
2023/10/22 12:21:57;;;;;;;;;;;15.70;75.10;;;;;;5096523;28;19924;-67
2023/10/22 12:24:31;;;;;;;;;;;15.70;75.10;;;;;;5098118;28;19935;-68
2023/10/22 12:27:04;;;;;;;;;;;15.60;75.40;;;;;;5097403;28;19981;-68
2023/10/22 12:29:38;;;;;;;;;;;15.50;75.50;;;;;;5096190;28;19964;-70
2023/10/22 12:32:05;;;;;;;;;;;15.40;75.40;;;;;;5100218;28;19931;-70
2023/10/22 12:34:39;;;;;;;;;;;15.30;75.60;;;;;;5098716;28;19936;-69
2023/10/22 12:37:13;;;;;;;;;;;15.20;75.70;;;;;;5092694;28;20203;-68
2023/10/22 12:39:46;;;;;;;;;;;15.20;75.60;;;;;;5094067;28;19928;-69
2023/10/22 12:42:19;;;;;;;;;;;15.20;75.40;;;;;;5095764;28;19931;-72
2023/10/22 12:44:52;;;;;;;;;;;15.20;75.40;;;;;;5092190;28;19928;-69
2023/10/22 12:47:25;;;;;;;;;;;15.10;75.30;;;;;;5095918;28;19928;-69
2023/10/22 12:49:53;;;;;;;;;;;15.10;75.50;;;;;;5095240;28;19927;-69
2023/10/22 12:52:26;;;;;;;;;;;15.10;75.50;;;;;;5093443;28;20409;-70
2023/10/22 12:54:59;;;;;;;;;;;15.10;75.60;;;;;;5098030;28;19928;-68
2023/10/22 12:57:39;;;;;;;;;;;15.10;75.70;;;;;;5096437;28;20393;-71
2023/10/22 13:00:13;;;;;;;;;;;15.00;75.90;;;;;;5094353;28;19977;-69
2023/10/22 13:02:56;;;;;;;;;;;15.10;76.10;;;;;;5092488;28;19924;-69
2023/10/22 13:05:32;;;;;;;;;;;15.10;76.20;;;;;;5097606;28;19927;-69
2023/10/22 13:08:07;;;;;;;;;;;15.10;76.20;;;;;;5098880;28;19935;-69
2023/10/22 13:10:46;;;;;;;;;;;15.10;76.20;;;;;;5095268;28;19934;-69
2023/10/22 13:13:19;;;;;;;;;;;15.10;76.20;;;;;;5098089;28;20022;-68
2023/10/22 13:15:52;;;;;;;;;;;15.10;76.30;;;;;;5089575;28;19993;-69
2023/10/22 13:18:25;;;;;;;;;;;15.10;76.30;;;;;;5099304;28;19963;-70
2023/10/22 13:20:59;;;;;;;;;;;15.10;76.40;;;;;;5097331;28;19928;-69
2023/10/22 13:23:26;;;;;;;;;;;15.10;76.60;;;;;;5097042;28;19924;-69
2023/10/22 13:25:59;;;;;;;;;;;15.00;76.70;;;;;;5099373;28;19931;-70
2023/10/22 13:28:32;;;;;;;;;;;15.10;76.60;;;;;;5095863;28;20299;-71
2023/10/22 13:31:05;;;;;;;;;;;15.10;76.60;;;;;;5104435;27;19931;-70
2023/10/22 13:33:38;;;;;;;;;;;15.00;76.50;;;;;;5104905;28;19924;-70
2023/10/22 13:36:12;;;;;;;;;;;15.00;76.90;;;;;;5104757;28;20493;-70
2023/10/22 13:38:39;;;;;;;;;;;15.00;76.80;;;;;;5105275;27;19930;-70
2023/10/22 13:41:12;;;;;;;;;;;15.00;76.80;;;;;;5106327;28;20426;-71
2023/10/22 13:43:45;;;;;;;;;;;14.90;77.10;;;;;;5106788;27;19946;-70
2023/10/22 13:46:12;;;;;;;;;;;14.90;77.10;;;;;;5106121;27;19932;-70
2023/10/22 13:48:45;;;;;;;;;;;14.90;77.00;;;;;;5104511;27;19928;-70
2023/10/22 13:51:19;;;;;;;;;;;14.90;77.10;;;;;;5104588;28;19928;-71
2023/10/22 13:53:53;;;;;;;;;;;14.80;77.10;;;;;;5099870;28;19924;-70
2023/10/22 13:56:26;;;;;;;;;;;14.80;77.00;;;;;;5106306;28;19924;-70
2023/10/22 13:59:00;;;;;;;;;;;14.80;77.50;;;;;;5106936;27;20378;-70
2023/10/22 14:01:34;;;;;;;;;;;14.80;77.20;;;;;;5104722;27;19932;-70
2023/10/22 14:04:07;;;;;;;;;;;14.80;77.40;;;;;;5097811;27;20015;-70
2023/10/22 14:06:42;;;;;;;;;;;14.80;77.50;;;;;;5102437;27;19930;-70
2023/10/22 14:09:16;;;;;;;;;;;14.90;77.60;;;;;;5106558;27;19928;-71
2023/10/22 14:11:49;;;;;;;;;;;14.90;77.60;;;;;;5105168;28;19928;-70
2023/10/22 14:14:29;;;;;;;;;;;14.90;77.60;;;;;;5106102;27;19928;-71
2023/10/22 14:17:02;;;;;;;;;;;14.90;77.70;;;;;;5097250;28;20386;-70
2023/10/22 14:19:35;;;;;;;;;;;14.90;77.80;;;;;;5093557;28;19962;-70
2023/10/22 14:22:09;;;;;;;;;;;14.90;78.10;;;;;;5103009;27;20321;-70
2023/10/22 14:24:43;;;;;;;;;;;14.90;78.00;;;;;;5104458;28;19928;-70
2023/10/22 14:27:16;;;;;;;;;;;14.90;78.50;;;;;;5105602;28;19928;-71
2023/10/22 14:29:43;;;;;;;;;;;14.80;78.40;;;;;;5100546;27;19935;-73
2023/10/22 14:32:16;;;;;;;;;;;14.80;78.60;;;;;;5104437;27;20018;-70
2023/10/22 14:34:49;;;;;;;;;;;14.80;78.60;;;;;;5104506;28;19938;-71
2023/10/22 14:37:23;;;;;;;;;;;14.80;78.60;;;;;;5104800;27;20314;-71
2023/10/22 14:39:57;;;;;;;;;;;14.80;78.70;;;;;;5100201;27;19928;-70
2023/10/22 14:42:30;;;;;;;;;;;14.90;78.70;;;;;;5098517;28;19966;-69
2023/10/22 14:45:04;;;;;;;;;;;14.90;78.70;;;;;;5105980;27;20337;-71
2023/10/22 14:47:37;;;;;;;;;;;14.90;78.70;;;;;;5094249;28;19935;-71
2023/10/22 14:50:10;;;;;;;;;;;14.90;78.60;;;;;;5089793;28;20349;-70
2023/10/22 14:52:44;;;;;;;;;;;14.90;78.50;;;;;;5094850;28;20406;-70
2023/10/22 14:55:18;;;;;;;;;;;15.00;78.40;;;;;;5093452;28;20027;-70
2023/10/22 14:57:51;;;;;;;;;;;15.00;78.40;;;;;;5096548;28;19932;-70
2023/10/22 15:00:24;;;;;;;;;;;14.90;78.40;;;;;;5100851;27;19925;-71
2023/10/22 15:02:57;;;;;;;;;;;14.90;78.50;;;;;;5099911;28;20022;-70
2023/10/22 15:05:31;;;;;;;;;;;14.90;78.60;;;;;;5095444;28;19931;-70